createdAt,value
2018-06-18T00:01:46.319Z,6.33
2018-06-18T00:04:14.261Z,6.67
2018-06-18T00:06:42.280Z,6.47
2018-06-18T00:09:12.620Z,6.83
2018-06-18T00:11:40.758Z,6.57
2018-06-18T00:14:08.847Z,5.37
2018-06-18T00:16:37.100Z,6.57
2018-06-18T00:19:05.034Z,6.57
2018-06-18T00:21:33.218Z,6.43
2018-06-18T00:24:01.317Z,6.13
2018-06-18T00:26:29.186Z,6.47
2018-06-18T00:28:57.052Z,6.00
2018-06-18T00:31:24.981Z,6.47
2018-06-18T00:33:53.204Z,5.57
2018-06-18T00:36:21.072Z,6.10
2018-06-18T00:38:49.860Z,5.80
2018-06-18T00:41:18.242Z,6.30
2018-06-18T00:43:46.126Z,6.37
2018-06-18T00:46:14.469Z,6.33
2018-06-18T00:48:42.377Z,5.63
2018-06-18T00:51:10.254Z,6.17
2018-06-18T00:53:38.118Z,5.50
2018-06-18T00:56:16.595Z,5.77
2018-06-18T00:58:44.790Z,6.40
2018-06-18T01:01:13.159Z,5.93
2018-06-18T01:03:40.884Z,6.43
2018-06-18T01:06:08.883Z,6.77
2018-06-18T01:08:36.728Z,5.97
2018-06-18T01:11:04.650Z,6.13
2018-06-18T01:13:32.348Z,6.27
2018-06-18T01:16:00.193Z,6.20
2018-06-18T01:18:28.109Z,7.43
2018-06-18T01:20:56.512Z,6.00
2018-06-18T01:23:48.625Z,6.47
2018-06-18T01:26:16.706Z,7.50
2018-06-18T01:28:44.590Z,7.20
2018-06-18T01:31:12.458Z,6.83
2018-06-18T01:33:40.299Z,7.53
2018-06-18T01:36:08.183Z,7.70
2018-06-18T01:38:35.913Z,6.67
2018-06-18T01:41:03.752Z,6.73
2018-06-18T01:43:31.664Z,6.93
2018-06-18T01:45:59.697Z,7.37
2018-06-18T01:48:27.827Z,6.47
2018-06-18T01:50:55.552Z,6.67
2018-06-18T01:53:23.425Z,7.20
2018-06-18T01:55:51.153Z,7.57
2018-06-18T01:58:19.000Z,7.50
2018-06-18T02:00:46.735Z,7.13
2018-06-18T02:03:14.699Z,7.70
2018-06-18T02:05:42.578Z,6.77
2018-06-18T02:08:10.508Z,7.03
2018-06-18T02:10:38.597Z,8.67
2018-06-18T02:13:06.595Z,8.00
2018-06-18T02:15:34.530Z,7.33
2018-06-18T02:18:02.278Z,7.50
2018-06-18T02:20:30.138Z,7.60
2018-06-18T02:22:57.997Z,7.47
2018-06-18T02:25:25.871Z,7.70
2018-06-18T02:28:01.635Z,7.93
2018-06-18T02:30:35.409Z,7.90
2018-06-18T02:34:11.641Z,8.00
2018-06-18T02:36:45.121Z,7.70
2018-06-18T02:39:14.336Z,7.87
2018-06-18T02:41:43.230Z,9.33
2018-06-18T02:44:11.095Z,8.27
2018-06-18T02:46:38.978Z,8.10
2018-06-18T02:49:06.942Z,9.00
2018-06-18T02:51:35.479Z,7.93
2018-06-18T02:54:03.402Z,8.57
2018-06-18T02:56:38.246Z,7.43
2018-06-18T02:59:06.119Z,8.43
2018-06-18T03:01:33.863Z,7.40
2018-06-18T03:04:02.138Z,8.20
2018-06-18T03:06:29.995Z,8.93
2018-06-18T03:08:57.852Z,9.00
2018-06-18T03:11:25.736Z,9.13
2018-06-18T03:13:53.525Z,8.40
2018-06-18T03:16:21.450Z,10.80
2018-06-18T03:18:54.798Z,9.50
2018-06-18T03:21:29.162Z,10.13
2018-06-18T03:24:03.031Z,10.10
2018-06-18T03:26:36.807Z,11.17
2018-06-18T03:29:10.410Z,9.73
2018-06-18T03:31:38.145Z,10.33
2018-06-18T03:34:06.047Z,10.17
2018-06-18T03:36:33.986Z,10.97
2018-06-18T03:39:01.883Z,9.90
2018-06-18T03:41:29.747Z,9.93
2018-06-18T03:44:02.551Z,9.90
2018-06-18T03:46:30.524Z,9.63
2018-06-18T03:48:59.107Z,9.67
2018-06-18T03:51:26.942Z,9.50
2018-06-18T03:53:54.835Z,10.40
2018-06-18T03:56:22.731Z,10.77
2018-06-18T03:58:50.594Z,10.17
2018-06-18T04:02:02.817Z,10.00
2018-06-18T04:04:41.719Z,10.63
2018-06-18T04:07:15.287Z,10.27
2018-06-18T04:09:48.736Z,11.53
2018-06-18T04:12:16.917Z,10.70
2018-06-18T04:14:45.094Z,12.33
2018-06-18T04:17:14.547Z,11.07
2018-06-18T04:19:42.450Z,12.53
2018-06-18T04:22:10.327Z,11.20
2018-06-18T04:24:38.893Z,13.70
2018-06-18T04:27:06.854Z,10.00
2018-06-18T04:29:34.734Z,11.17
2018-06-18T04:32:03.200Z,11.37
2018-06-18T04:34:40.611Z,11.53
2018-06-18T04:37:08.522Z,10.70
2018-06-18T04:39:36.427Z,11.70
2018-06-18T04:42:10.805Z,10.70
2018-06-18T04:44:44.426Z,11.23
2018-06-18T04:47:18.041Z,10.50
2018-06-18T04:49:51.610Z,10.70
2018-06-18T04:52:19.522Z,10.33
2018-06-18T04:54:47.257Z,9.33
2018-06-18T04:57:15.181Z,9.30
2018-06-18T04:59:44.516Z,8.93
2018-06-18T05:02:12.671Z,8.87
2018-06-18T05:04:40.429Z,9.93
2018-06-18T05:07:08.617Z,9.20
2018-06-18T05:10:42.704Z,10.13
2018-06-18T05:13:11.126Z,8.67
2018-06-18T05:15:39.307Z,8.93
2018-06-18T05:18:07.464Z,8.80
2018-06-18T05:20:35.379Z,9.30
2018-06-18T05:23:07.710Z,8.60
2018-06-18T05:25:35.777Z,8.63
2018-06-18T05:28:03.580Z,8.70
2018-06-18T05:30:32.096Z,7.57
2018-06-18T05:32:59.850Z,8.07
2018-06-18T05:35:29.079Z,6.53
2018-06-18T05:38:34.930Z,6.93
2018-06-18T05:41:02.749Z,6.93
2018-06-18T05:43:31.430Z,7.00
2018-06-18T05:45:59.451Z,6.13
2018-06-18T05:48:27.183Z,6.60
2018-06-18T05:50:55.410Z,6.57
2018-06-18T05:53:23.924Z,5.47
2018-06-18T05:55:52.178Z,6.40
2018-06-18T05:58:20.080Z,6.30
2018-06-18T06:00:48.519Z,6.50
2018-06-18T06:03:16.443Z,6.77
2018-06-18T06:05:44.954Z,6.07
2018-06-18T06:08:12.983Z,5.87
2018-06-18T06:10:40.921Z,6.20
2018-06-18T06:13:09.796Z,5.40
2018-06-18T06:15:38.171Z,5.70
2018-06-18T06:18:06.398Z,6.13
2018-06-18T06:20:35.102Z,5.40
2018-06-18T06:23:03.005Z,5.80
2018-06-18T06:25:30.872Z,5.33
2018-06-18T06:27:58.601Z,5.40
2018-06-18T06:30:26.489Z,6.20
2018-06-18T06:32:54.384Z,5.23
2018-06-18T06:35:26.477Z,5.37
2018-06-18T06:37:55.423Z,5.47
2018-06-18T06:40:23.821Z,5.30
2018-06-18T06:42:51.777Z,6.00
2018-06-18T06:45:20.235Z,4.30
2018-06-18T06:47:48.164Z,6.60
2018-06-18T06:50:16.180Z,4.87
2018-06-18T06:52:44.259Z,5.13
2018-06-18T06:55:12.184Z,4.20
2018-06-18T06:57:40.066Z,4.50
2018-06-18T07:00:08.166Z,5.10
2018-06-18T07:02:36.171Z,5.10
2018-06-18T07:05:04.182Z,5.00
2018-06-18T07:07:32.895Z,4.57
2018-06-18T07:10:00.816Z,3.80
2018-06-18T07:12:28.847Z,4.40
2018-06-18T07:14:56.761Z,3.70
2018-06-18T07:17:24.661Z,4.97
2018-06-18T07:19:52.581Z,4.27
2018-06-18T07:22:20.433Z,4.03
2018-06-18T07:24:48.330Z,4.30
2018-06-18T07:27:16.305Z,4.60
2018-06-18T07:29:44.205Z,3.63
2018-06-18T07:32:11.989Z,3.63
2018-06-18T07:34:39.899Z,3.90
2018-06-18T07:37:08.502Z,3.70
2018-06-18T07:39:36.554Z,3.93
2018-06-18T07:42:04.473Z,3.87
2018-06-18T07:44:32.732Z,3.33
2018-06-18T07:47:00.758Z,3.53
2018-06-18T07:49:28.684Z,3.80
2018-06-18T07:51:56.393Z,3.33
2018-06-18T07:54:24.319Z,3.20
2018-06-18T07:56:52.298Z,3.20
2018-06-18T07:59:20.668Z,3.00
2018-06-18T08:01:48.427Z,3.23
2018-06-18T08:04:16.176Z,3.37
2018-06-18T08:06:44.144Z,2.70
2018-06-18T08:09:13.571Z,3.23
2018-06-18T08:11:42.203Z,2.73
2018-06-18T08:14:10.320Z,2.87
2018-06-18T08:16:38.239Z,2.90
2018-06-18T08:19:06.914Z,2.70
2018-06-18T08:21:35.134Z,2.80
2018-06-18T08:24:02.954Z,2.77
2018-06-18T08:26:31.181Z,3.40
2018-06-18T08:28:58.975Z,3.27
2018-06-18T08:31:27.100Z,2.83
2018-06-18T08:33:55.012Z,3.27
2018-06-18T08:36:23.279Z,3.40
2018-06-18T08:38:51.236Z,3.60
2018-06-18T08:41:19.423Z,3.37
2018-06-18T08:43:47.349Z,3.10
2018-06-18T08:46:15.311Z,2.33
2018-06-18T08:48:49.981Z,2.73
2018-06-18T08:51:24.334Z,2.93
2018-06-18T08:53:58.816Z,3.27
2018-06-18T08:56:33.031Z,2.90
2018-06-18T08:59:08.838Z,3.07
2018-06-18T09:01:41.871Z,2.60
2018-06-18T09:04:21.933Z,2.80
2018-06-18T09:06:50.200Z,3.10
2018-06-18T09:09:17.990Z,2.87
2018-06-18T09:11:45.886Z,2.50
2018-06-18T09:14:13.811Z,2.50
2018-06-18T09:16:41.751Z,2.50
2018-06-18T09:19:09.960Z,2.47
2018-06-18T09:21:37.906Z,2.73
2018-06-18T09:24:06.100Z,3.30
2018-06-18T09:26:34.011Z,2.50
2018-06-18T09:29:01.906Z,3.00
2018-06-18T09:31:31.477Z,2.47
2018-06-18T09:34:00.182Z,2.80
2018-06-18T09:36:28.117Z,2.50
2018-06-18T09:38:56.873Z,3.27
2018-06-18T09:41:25.157Z,2.70
2018-06-18T09:43:52.901Z,2.30
2018-06-18T09:46:20.835Z,2.20
2018-06-18T09:48:57.502Z,2.30
2018-06-18T09:51:31.076Z,2.40
2018-06-18T09:54:05.486Z,2.60
2018-06-18T09:56:39.110Z,2.97
2018-06-18T09:59:12.697Z,2.40
2018-06-18T10:01:40.636Z,2.23
2018-06-18T10:04:08.505Z,2.00
2018-06-18T10:06:37.410Z,2.43
2018-06-18T10:09:06.859Z,2.27
2018-06-18T10:11:35.901Z,2.60
2018-06-18T10:14:04.944Z,2.70
2018-06-18T10:16:32.857Z,2.60
2018-06-18T10:19:01.263Z,2.33
2018-06-18T10:21:29.536Z,2.23
2018-06-18T10:23:58.022Z,2.57
2018-06-18T10:26:26.673Z,2.53
2018-06-18T10:28:54.440Z,2.23
2018-06-18T10:31:22.365Z,2.00
2018-06-18T10:33:56.619Z,2.60
2018-06-18T10:36:30.170Z,2.30
2018-06-18T10:39:03.746Z,2.77
2018-06-18T10:41:37.315Z,2.97
2018-06-18T10:44:05.476Z,2.60
2018-06-18T10:46:34.304Z,2.47
2018-06-18T10:49:03.341Z,2.53
2018-06-18T10:51:31.369Z,2.50
2018-06-18T10:53:59.294Z,2.73
2018-06-18T10:56:27.206Z,3.00
2018-06-18T10:58:55.160Z,2.77
2018-06-18T11:01:29.218Z,2.73
2018-06-18T11:03:57.944Z,2.13
2018-06-18T11:06:31.560Z,2.70
2018-06-18T11:08:59.801Z,2.50
2018-06-18T11:11:28.227Z,2.30
2018-06-18T11:13:56.104Z,2.00
2018-06-18T11:16:24.057Z,2.30
2018-06-18T11:18:57.513Z,2.10
2018-06-18T11:21:33.473Z,2.20
2018-06-18T11:24:06.875Z,2.80
2018-06-18T11:26:40.908Z,2.57
2018-06-18T11:29:09.135Z,2.27
2018-06-18T11:31:37.985Z,2.40
2018-06-18T11:34:06.559Z,2.40
2018-06-18T11:36:35.143Z,2.50
2018-06-18T11:39:04.750Z,2.47
2018-06-18T11:41:32.632Z,2.33
2018-06-18T11:44:00.456Z,2.30
2018-06-18T11:46:28.329Z,2.20
2018-06-18T11:48:57.022Z,2.30
2018-06-18T11:51:25.065Z,2.00
2018-06-18T11:53:52.987Z,2.43
2018-06-18T11:56:20.982Z,2.13
2018-06-18T11:58:55.245Z,2.40
2018-06-18T12:01:29.504Z,2.87
2018-06-18T12:04:03.026Z,2.27
2018-06-18T12:06:37.270Z,2.60
2018-06-18T12:09:12.793Z,2.30
2018-06-18T12:11:41.746Z,2.17
2018-06-18T12:14:09.719Z,1.70
2018-06-18T12:16:38.360Z,1.70
2018-06-18T12:19:07.251Z,2.13
2018-06-18T12:21:35.309Z,1.73
2018-06-18T12:24:03.335Z,2.00
2018-06-18T12:26:32.130Z,1.50
2018-06-18T12:29:00.409Z,1.60
2018-06-18T12:31:28.853Z,2.50
2018-06-18T12:33:56.894Z,1.90
2018-06-18T12:36:24.830Z,1.80
2018-06-18T12:38:52.756Z,1.60
2018-06-18T12:41:20.752Z,2.07
2018-06-18T12:43:52.358Z,1.73
2018-06-18T12:46:26.768Z,1.80
2018-06-18T12:49:01.226Z,1.50
2018-06-18T12:51:34.902Z,1.57
2018-06-18T12:54:08.516Z,1.83
2018-06-18T12:56:42.968Z,1.70
2018-06-18T12:59:11.948Z,1.60
2018-06-18T13:01:45.402Z,2.20
2018-06-18T13:04:13.147Z,2.07
2018-06-18T13:06:40.895Z,1.97
2018-06-18T13:09:09.509Z,2.00
2018-06-18T13:11:37.579Z,2.10
2018-06-18T13:14:05.492Z,2.07
2018-06-18T13:16:33.526Z,2.00
2018-06-18T13:19:01.277Z,1.80
2018-06-18T13:21:29.163Z,2.23
2018-06-18T13:23:57.067Z,1.70
2018-06-18T13:26:25.080Z,1.93
2018-06-18T13:28:53.005Z,2.00
2018-06-18T13:31:20.967Z,1.90
2018-06-18T13:33:48.935Z,2.13
2018-06-18T13:36:16.978Z,2.27
2018-06-18T13:38:51.445Z,2.30
2018-06-18T13:41:26.085Z,2.03
2018-06-18T13:43:59.607Z,2.37
2018-06-18T13:46:32.879Z,1.70
2018-06-18T13:49:00.931Z,1.87
2018-06-18T13:51:29.845Z,2.00
2018-06-18T13:53:57.756Z,1.70
2018-06-18T13:56:25.654Z,1.97
2018-06-18T13:58:54.270Z,2.50
2018-06-18T14:01:22.935Z,2.03
2018-06-18T14:03:51.121Z,2.30
2018-06-18T14:06:19.435Z,1.93
2018-06-18T14:08:47.219Z,1.90
2018-06-18T14:11:15.207Z,2.50
2018-06-18T14:13:43.119Z,2.00
2018-06-18T14:16:11.413Z,2.17
2018-06-18T14:18:39.309Z,2.23
2018-06-18T14:21:07.228Z,1.90
2018-06-18T14:23:34.969Z,2.23
2018-06-18T14:26:02.993Z,2.10
2018-06-18T14:28:30.914Z,2.40
2018-06-18T14:31:04.525Z,2.63
2018-06-18T14:33:40.210Z,2.73
2018-06-18T14:36:13.885Z,2.40
2018-06-18T14:38:47.310Z,2.53
2018-06-18T14:41:15.317Z,2.13
2018-06-18T14:43:43.254Z,2.57
2018-06-18T14:46:11.264Z,2.47
2018-06-18T14:48:40.431Z,2.60
2018-06-18T14:51:08.463Z,2.50
2018-06-18T14:53:36.223Z,2.43
2018-06-18T14:56:37.114Z,2.63
2018-06-18T14:59:19.079Z,3.07
2018-06-18T15:01:47.073Z,2.60
2018-06-18T15:04:15.692Z,2.43
2018-06-18T15:06:43.498Z,2.23
2018-06-18T15:09:12.155Z,2.27
2018-06-18T15:11:40.691Z,2.33
2018-06-18T15:14:09.078Z,2.53
2018-06-18T15:16:37.005Z,2.20
2018-06-18T15:19:05.341Z,2.30
2018-06-18T15:21:36.191Z,2.77
2018-06-18T15:24:07.537Z,2.70
2018-06-18T15:26:35.424Z,2.43
2018-06-18T15:29:03.262Z,2.30
2018-06-18T15:31:31.191Z,2.30
2018-06-18T15:33:59.459Z,2.47
2018-06-18T15:36:27.222Z,2.03
2018-06-18T15:38:55.044Z,2.07
2018-06-18T15:41:23.862Z,2.37
2018-06-18T15:43:51.788Z,2.53
2018-06-18T15:46:19.700Z,2.33
2018-06-18T15:48:48.189Z,2.30
2018-06-18T15:51:15.976Z,2.53
2018-06-18T15:53:43.866Z,2.70
2018-06-18T15:56:11.983Z,2.00
2018-06-18T15:58:39.909Z,2.10
2018-06-18T16:01:08.517Z,2.40
2018-06-18T16:03:37.302Z,2.63
2018-06-18T16:06:05.406Z,2.07
2018-06-18T16:08:33.205Z,3.67
2018-06-18T16:11:01.142Z,2.10
2018-06-18T16:13:29.445Z,2.33
2018-06-18T16:15:58.128Z,2.20
2018-06-18T16:18:26.402Z,2.60
2018-06-18T16:20:54.651Z,3.00
2018-06-18T16:23:22.413Z,2.67
2018-06-18T16:25:50.513Z,2.70
2018-06-18T16:28:18.435Z,2.10
2018-06-18T16:30:46.419Z,2.40
2018-06-18T16:33:14.322Z,2.60
2018-06-18T16:35:42.230Z,2.97
2018-06-18T16:38:10.115Z,2.60
2018-06-18T16:40:38.011Z,3.00
2018-06-18T16:43:05.755Z,3.13
2018-06-18T16:45:33.672Z,3.27
2018-06-18T16:48:02.082Z,3.40
2018-06-18T16:50:30.819Z,2.60
2018-06-18T16:52:58.855Z,3.50
2018-06-18T16:55:26.940Z,3.00
2018-06-18T16:57:54.865Z,2.80
2018-06-18T17:00:22.763Z,2.40
2018-06-18T17:02:50.707Z,2.70
2018-06-18T17:05:18.616Z,3.20
2018-06-18T17:07:46.513Z,2.83
2018-06-18T17:10:15.500Z,2.50
2018-06-18T17:12:43.399Z,3.33
2018-06-18T17:15:11.287Z,3.20
2018-06-18T17:17:39.982Z,2.73
2018-06-18T17:20:07.895Z,3.03
2018-06-18T17:22:35.810Z,3.20
2018-06-18T17:25:03.791Z,3.30
2018-06-18T17:27:32.687Z,3.73
2018-06-18T17:30:00.578Z,4.83
2018-06-18T17:32:28.556Z,3.30
2018-06-18T17:34:56.439Z,3.17
2018-06-18T17:37:24.374Z,2.93
2018-06-18T17:39:52.269Z,3.30
2018-06-18T17:42:20.566Z,3.40
2018-06-18T17:44:48.493Z,3.00
2018-06-18T17:47:16.307Z,2.93
2018-06-18T17:49:44.235Z,3.23
2018-06-18T17:52:12.010Z,3.30
2018-06-18T17:54:39.939Z,2.77
2018-06-18T17:57:07.934Z,2.90
2018-06-18T17:59:36.292Z,3.00
2018-06-18T18:02:04.407Z,2.90
2018-06-18T18:04:32.311Z,2.77
2018-06-18T18:07:00.213Z,2.50
2018-06-18T18:09:27.954Z,2.40
2018-06-18T18:11:55.894Z,2.20
2018-06-18T18:14:24.145Z,2.67
2018-06-18T18:16:52.308Z,2.30
2018-06-18T18:19:20.214Z,2.53
2018-06-18T18:21:48.090Z,3.10
2018-06-18T18:24:15.984Z,2.67
2018-06-18T18:26:44.378Z,2.70
2018-06-18T18:29:12.120Z,2.70
2018-06-18T18:31:40.211Z,2.80
2018-06-18T18:34:07.977Z,3.03
2018-06-18T18:36:35.817Z,2.70
2018-06-18T18:39:05.723Z,3.10
2018-06-18T18:41:33.843Z,2.70
2018-06-18T18:44:01.766Z,2.73
2018-06-18T18:46:29.650Z,2.53
2018-06-18T18:48:58.584Z,2.60
2018-06-18T18:51:26.490Z,2.90
2018-06-18T18:53:54.446Z,2.50
2018-06-18T18:56:33.810Z,2.90
2018-06-18T18:59:13.551Z,2.80
2018-06-18T19:01:41.424Z,11.50
2018-06-18T19:04:12.165Z,4.20
2018-06-18T19:06:40.093Z,3.30
2018-06-18T19:09:09.895Z,2.90
2018-06-18T19:11:38.491Z,3.70
2018-06-18T19:14:06.198Z,4.70
2018-06-18T19:16:33.965Z,3.97
2018-06-18T19:19:03.338Z,3.90
2018-06-18T19:21:32.252Z,3.50
2018-06-18T19:24:00.618Z,3.70
2018-06-18T19:26:28.497Z,7.07
2018-06-18T19:28:56.261Z,8.13
2018-06-18T19:31:25.251Z,10.47
2018-06-18T19:34:15.892Z,6.80
2018-06-18T19:36:50.964Z,5.30
2018-06-18T19:39:19.449Z,4.23
2018-06-18T19:41:47.349Z,3.60
2018-06-18T19:44:15.141Z,3.83
2018-06-18T19:46:53.866Z,4.07
2018-06-18T19:49:21.779Z,3.27
2018-06-18T19:51:49.866Z,4.17
2018-06-18T19:54:20.557Z,4.40
2018-06-18T19:56:48.768Z,3.40
2018-06-18T19:59:16.653Z,4.30
2018-06-18T20:01:44.516Z,4.30
2018-06-18T20:04:12.280Z,4.00
2018-06-18T20:06:40.292Z,3.90
2018-06-18T20:09:10.263Z,4.33
2018-06-18T20:11:38.675Z,4.00
2018-06-18T20:14:06.747Z,3.80
2018-06-18T20:16:35.241Z,3.83
2018-06-18T20:19:03.241Z,3.70
2018-06-18T20:21:31.463Z,3.80
2018-06-18T20:23:59.720Z,3.60
2018-06-18T20:26:27.698Z,3.80
2018-06-18T20:28:56.083Z,4.13
2018-06-18T20:31:24.068Z,4.83
2018-06-18T20:33:54.727Z,4.37
2018-06-18T20:36:23.925Z,4.07
2018-06-18T20:38:52.095Z,3.77
2018-06-18T20:41:20.431Z,3.97
2018-06-18T20:43:57.232Z,4.30
2018-06-18T20:46:25.132Z,3.80
2018-06-18T20:48:53.241Z,4.20
2018-06-18T20:51:21.015Z,4.17
2018-06-18T20:53:49.294Z,4.40
2018-06-18T20:56:17.029Z,4.47
2018-06-18T20:58:44.939Z,4.47
2018-06-18T21:01:12.679Z,4.80
2018-06-18T21:03:40.466Z,4.50
2018-06-18T21:06:08.403Z,5.03
2018-06-18T21:08:36.327Z,4.70
2018-06-18T21:11:04.359Z,4.37
2018-06-18T21:13:32.117Z,5.17
2018-06-18T21:16:00.674Z,4.30
2018-06-18T21:18:29.086Z,5.10
2018-06-18T21:20:56.873Z,5.50
2018-06-18T21:23:24.930Z,5.47
2018-06-18T21:25:52.667Z,4.77
2018-06-18T21:28:21.044Z,5.00
2018-06-18T21:30:48.977Z,4.70
2018-06-18T21:33:16.863Z,4.30
2018-06-18T21:35:44.780Z,4.67
2018-06-18T21:38:13.009Z,4.67
2018-06-18T21:40:40.891Z,5.20
2018-06-18T21:43:09.207Z,4.80
2018-06-18T21:45:37.112Z,4.50
2018-06-18T21:48:05.118Z,4.80
2018-06-18T21:50:33.044Z,4.73
2018-06-18T21:53:01.008Z,5.30
2018-06-18T21:55:28.961Z,4.70
2018-06-18T21:57:56.909Z,4.90
2018-06-18T22:00:26.225Z,5.23
2018-06-18T22:02:54.254Z,5.60
2018-06-18T22:05:22.310Z,5.40
2018-06-18T22:07:50.261Z,5.37
2018-06-18T22:10:18.512Z,4.37
2018-06-18T22:12:46.396Z,5.47
2018-06-18T22:15:14.299Z,5.50
2018-06-18T22:17:42.315Z,5.27
2018-06-18T22:20:10.364Z,6.20
2018-06-18T22:22:38.234Z,5.00
2018-06-18T22:25:06.000Z,5.03
2018-06-18T22:27:34.307Z,5.50
2018-06-18T22:30:02.262Z,5.10
2018-06-18T22:32:30.268Z,5.70
2018-06-18T22:34:58.402Z,5.87
2018-06-18T22:37:26.471Z,6.20
2018-06-18T22:39:54.476Z,5.30
2018-06-18T22:42:22.449Z,5.60
2018-06-18T22:44:50.563Z,6.60
2018-06-18T22:47:18.518Z,6.03
2018-06-18T22:49:46.942Z,6.07
2018-06-18T22:52:14.670Z,5.47
2018-06-18T22:54:46.967Z,6.43
2018-06-18T22:57:15.925Z,5.40
2018-06-18T22:59:44.343Z,5.57
2018-06-18T23:02:12.778Z,4.87
2018-06-18T23:04:40.856Z,5.00
2018-06-18T23:07:09.040Z,5.03
2018-06-18T23:09:36.951Z,6.17
2018-06-18T23:12:05.224Z,5.77
2018-06-18T23:14:33.195Z,5.20
2018-06-18T23:17:02.112Z,5.80
2018-06-18T23:19:30.184Z,5.33
2018-06-18T23:21:58.336Z,6.33
2018-06-18T23:24:26.247Z,5.03
2018-06-18T23:26:55.417Z,5.23
2018-06-18T23:29:23.671Z,5.43
2018-06-18T23:31:52.137Z,5.10
2018-06-18T23:34:20.173Z,6.10
2018-06-18T23:36:48.118Z,6.03
2018-06-18T23:39:16.606Z,5.80
2018-06-18T23:41:47.698Z,6.83
2018-06-18T23:44:15.743Z,6.53
2018-06-18T23:46:43.680Z,6.40
2018-06-18T23:49:11.779Z,6.47
2018-06-18T23:51:41.212Z,5.50
2018-06-18T23:54:09.257Z,5.50
2018-06-18T23:56:37.162Z,5.77
2018-06-18T23:59:05.793Z,5.73
